Weather reports worldwide

Advertisment
Strbske Pleso, Slovakia (11933): temperature & dewpoint: 06.12.2018 14:00:00 - 12.12.2018 14:00:00 (CET)Strbske Pleso, Slovakia (11933): wind speed: 06.12.2018 14:00:00 - 12.12.2018 14:00:00 (CET)Strbske Pleso, Slovakia (11933): wind direction: 06.12.2018 14:00:00 - 12.12.2018 14:00:00 (CET)Strbske Pleso, Slovakia (11933): visibility: 06.12.2018 14:00:00 - 12.12.2018 14:00:00 (CET)
Date & Time tt [°C] td [°C] ff [km/h] ff [kn] dd vv [km]
12.12.2018 14:00:00 -4,7 -6,5 0 0 N 1,1
12.12.2018 13:00:00 -4,9 -6,4 0 0 N 1,1
12.12.2018 12:00:00 -4,1 -5,9 0 0 N 1,5
12.12.2018 11:00:00 -4,5 -6,2 4 2 N 1,2
12.12.2018 10:00:00 -3,1 -5,9 4 2 N 4,0
12.12.2018 09:00:00 -5,2 -5,7 0 0 N 1,5
12.12.2018 08:00:00 -6,2 -6,7 0 0 N 1,2
12.12.2018 07:00:00 -7,1 -7,8 0 0 N 3,0
12.12.2018 06:00:00 -7,0 -7,7 0 0 N -
12.12.2018 05:00:00 -6,6 -7,3 0 0 N -
12.12.2018 04:00:00 -6,4 -7,1 0 0 N -
12.12.2018 03:00:00 -6,4 -7,1 0 0 N -
12.12.2018 02:00:00 -6,4 -7,1 0 0 N -
12.12.2018 01:00:00 -6,1 -6,6 4 2 N -
12.12.2018 00:00:00 -6,3 -7,0 4 2 N -
11.12.2018 23:00:00 -5,8 -6,3 0 0 N -
11.12.2018 22:00:00 -5,6 -6,1 0 0 N -
11.12.2018 21:00:00 -5,6 -6,1 4 2 N 2,0
11.12.2018 20:00:00 -5,9 -6,4 0 0 N 1,5
11.12.2018 19:00:00 -5,9 -6,4 4 2 N 3,0
11.12.2018 18:00:00 -5,6 -6,1 0 0 N 3,0
11.12.2018 17:00:00 -5,6 -6,3 4 2 N 2,0
11.12.2018 16:00:00 -5,7 -6,5 4 2 N 1,5
11.12.2018 15:00:00 -5,7 -6,6 4 2 N 6
11.12.2018 14:00:00 -5,0 -5,7 4 2 N 0,3
11.12.2018 13:00:00 -4,9 -5,7 4 2 N 0,4
11.12.2018 12:00:00 -4,7 -5,9 4 2 N 1,2
11.12.2018 11:00:00 -4,7 -5,6 4 2 N 1,5
11.12.2018 10:00:00 -4,8 -5,3 4 2 N 2,0
11.12.2018 09:00:00 -5,4 -5,9 4 2 N 2,0
11.12.2018 08:00:00 -6,2 -6,7 4 2 - 3,0
11.12.2018 07:00:00 -6,4 -7,1 4 2 N 4,0
11.12.2018 06:00:00 -6,5 -7,2 4 2 N -
11.12.2018 05:00:00 -6,5 -7,2 4 2 N -
11.12.2018 04:00:00 -6,7 -7,4 4 2 N -
11.12.2018 03:00:00 -6,2 -6,9 4 2 N -
11.12.2018 02:00:00 -6,5 -7,2 4 2 N -
11.12.2018 01:00:00 -6,6 -7,3 4 2 N -
11.12.2018 00:00:00 -6,0 -6,5 4 2 N -
10.12.2018 23:00:00 -5,8 -6,3 4 2 N -
10.12.2018 22:00:00 -5,6 -6,1 4 2 N -
10.12.2018 21:00:00 -5,6 -6,1 4 2 N 0,1
10.12.2018 20:00:00 -5,4 -6,1 4 2 N 0,1
10.12.2018 19:00:00 -5,5 -6,7 4 2 N 4,0
10.12.2018 18:00:00 -5,0 -7,0 7 4 N 1,5
10.12.2018 17:00:00 -4,8 -5,5 4 2 N 3,0
10.12.2018 16:00:00 -4,2 -7,1 7 4 N 6
10.12.2018 15:00:00 -4,2 -5,2 4 2 N 0,1
10.12.2018 14:00:00 -2,8 -5,0 7 4 N 3,0
10.12.2018 13:00:00 -2,2 -5,5 4 2 N 2,0
10.12.2018 12:00:00 -2,8 -4,8 7 4 N 2,0
10.12.2018 11:00:00 -2,7 -3,1 4 2 N 0,4
10.12.2018 10:00:00 -3,3 -3,7 4 2 N 0,1
10.12.2018 09:00:00 -3,2 -3,6 4 2 N 0,2
10.12.2018 08:00:00 -3,1 -3,4 4 2 N 0,1
10.12.2018 07:00:00 -3,8 -4,2 7 4 N 0,2
10.12.2018 06:00:00 -2,3 -2,6 4 2 N -
10.12.2018 05:00:00 -2,1 -2,4 4 2 N -
10.12.2018 04:00:00 -1,9 -2,2 4 2 N -
10.12.2018 03:00:00 -1,9 -2,2 4 2 N -
10.12.2018 02:00:00 -1,6 -1,9 7 4 N -
10.12.2018 01:00:00 -1,6 -1,9 4 2 N -
10.12.2018 00:00:00 -1,5 -1,8 4 2 N -
09.12.2018 23:00:00 -1,5 -1,8 7 4 N -
09.12.2018 22:00:00 -1,5 -1,8 7 4 N -
09.12.2018 21:00:00 -1,4 -1,7 7 4 N 0,3
09.12.2018 20:00:00 -1,4 -1,7 7 4 N 0,3
09.12.2018 19:00:00 -1,2 -1,5 7 4 N 10
09.12.2018 18:00:00 -1,5 -1,8 11 6 W 10
09.12.2018 17:00:00 -1,6 -1,9 11 6 WSW 0,4
09.12.2018 16:00:00 -1,6 -2,0 11 6 W 0,6
09.12.2018 15:00:00 -1,6 -2,0 7 4 W 1,5
09.12.2018 14:00:00 -1,4 -1,8 7 4 N 3,0
09.12.2018 13:00:00 -1,8 -2,2 7 4 N 0,8
09.12.2018 12:00:00 -1,2 -1,5 4 2 N 0,3
09.12.2018 11:00:00 -1,3 -1,6 4 2 - 0,3
09.12.2018 10:00:00 -1,7 -2,0 7 4 - 7
09.12.2018 09:00:00 -1,9 -2,2 7 4 W 1,4
09.12.2018 08:00:00 -2,0 -2,3 7 4 N 12
09.12.2018 07:00:00 -2,1 -2,4 7 4 N 0,5
09.12.2018 06:00:00 -2,0 -2,4 7 4 N 12
09.12.2018 05:00:00 -2,0 -2,3 4 2 - -
09.12.2018 04:00:00 -2,0 -2,3 4 2 N -
09.12.2018 03:00:00 -1,8 -2,2 11 6 N -
09.12.2018 02:00:00 -2,0 -2,4 11 6 W -
09.12.2018 01:00:00 -2,0 -2,4 7 4 N -
09.12.2018 00:00:00 -2,2 -2,6 11 6 N -
08.12.2018 23:00:00 -2,2 -2,8 11 6 N -
08.12.2018 22:00:00 -2,4 -2,9 7 4 N -
08.12.2018 21:00:00 -3,0 -4,0 7 4 N 50
08.12.2018 20:00:00 -3,2 -3,7 11 6 W 50
08.12.2018 19:00:00 -3,4 -3,8 7 4 N 50
08.12.2018 18:00:00 -2,5 -2,8 7 4 N 40
08.12.2018 17:00:00 -2,6 -2,9 7 4 N 40
08.12.2018 16:00:00 -2,3 -2,6 4 2 N 20
08.12.2018 15:00:00 -1,7 -2,0 4 2 N 0,3
08.12.2018 14:00:00 -1,3 -1,6 4 2 N 0,2
08.12.2018 13:00:00 -0,9 -1,3 4 2 - 0,1
08.12.2018 12:00:00 -0,3 -0,6 4 2 N 0,1
08.12.2018 11:00:00 -0,6 -0,9 4 2 N -
08.12.2018 10:00:00 -0,3 -0,6 4 2 N 0,1
08.12.2018 09:00:00 -0,2 -0,5 7 4 N 0,1
08.12.2018 08:00:00 -0,8 -1,2 7 4 N 0,1
08.12.2018 07:00:00 -0,5 -0,9 7 4 N 0,2
08.12.2018 06:00:00 0,0 -0,6 7 4 N 0,8
08.12.2018 05:00:00 0,8 0,1 11 6 W -
08.12.2018 04:00:00 2,7 1,8 11 6 N -
08.12.2018 03:00:00 2,0 1,4 11 6 N -
08.12.2018 02:00:00 2,7 2,4 11 6 W -
08.12.2018 01:00:00 3,2 2,9 7 4 N -
08.12.2018 00:00:00 1,9 1,6 4 2 N -
07.12.2018 23:00:00 2,1 1,8 4 2 N -
07.12.2018 22:00:00 2,2 1,9 7 4 N -
07.12.2018 21:00:00 2,2 1,9 4 2 N 0,1
07.12.2018 20:00:00 1,7 1,4 4 2 N 0,1
07.12.2018 19:00:00 2,8 2,5 7 4 N 0,6
07.12.2018 18:00:00 2,6 2,3 7 4 N 0,5
07.12.2018 17:00:00 2,1 1,8 4 2 - 0,2
07.12.2018 16:00:00 2,4 2,1 7 4 N 0,7
07.12.2018 15:00:00 2,1 1,8 7 4 N 0,3
07.12.2018 14:00:00 1,9 1,6 7 4 N 0,2
07.12.2018 13:00:00 1,9 1,6 7 4 N 0,2
07.12.2018 12:00:00 1,0 0,7 11 6 W 0,1
07.12.2018 11:00:00 0,7 0,4 7 4 N 0,1
07.12.2018 10:00:00 0,3 0,0 7 4 N 0,2
07.12.2018 09:00:00 0,3 0,0 7 4 N 0,2
07.12.2018 08:00:00 0,1 -0,2 7 4 N 0,2
07.12.2018 07:00:00 -0,6 -0,9 4 2 N 0,2
07.12.2018 06:00:00 -1,0 -1,3 7 4 N 0,2
07.12.2018 05:00:00 -1,2 -1,5 7 4 N -
07.12.2018 04:00:00 -0,9 -1,3 4 2 N -
07.12.2018 03:00:00 -1,2 -1,6 7 4 N -
07.12.2018 02:00:00 -1,9 -2,4 4 2 - -
07.12.2018 01:00:00 -1,5 -2,3 7 4 N -
07.12.2018 00:00:00 -1,4 -2,5 7 4 N -
06.12.2018 23:00:00 -1,8 -4,0 7 4 - -
06.12.2018 22:00:00 -2,8 -6,3 7 4 N -
06.12.2018 21:00:00 -3,9 -7,3 4 2 N 40
06.12.2018 20:00:00 -4,7 -8,1 4 2 N 40
06.12.2018 19:00:00 -4,2 -8,5 4 2 N 40
06.12.2018 18:00:00 -3,9 -9,7 4 2 N 50
06.12.2018 17:00:00 -3,8 -10,0 4 2 N 50
06.12.2018 16:00:00 -3,5 -10,4 4 2 N 60
06.12.2018 15:00:00 -2,9 -10,9 4 2 N 70
06.12.2018 14:00:00 -1,7 -11,0 4 2 N 75

tt = temperature
td = dewpoint
ff = wind speed
dd = wind direction
vv = visibility

Next stations